Time;durP1;ratioP1;P1;durP2;ratioP2;P2;SDS_P1;SDS_P2;PMS_P1;PMS_P2;Temp;Humidity;BMP_temperature;BMP_pressure;BME280_temperature;BME280_humidity;BME280_pressure;Samples;Min_cycle;Max_cycle;Signal;HPM_P1;HPM_P2
2021/11/24 00:01:36;;;;;;;28.73;10.90;;;6.80;99.90;;;;;;5071169;28;20276;-74
2021/11/24 00:04:05;;;;;;;22.10;10.40;;;6.70;99.90;;;;;;5070735;28;20467;-73
2021/11/24 00:06:32;;;;;;;19.27;8.80;;;6.80;99.90;;;;;;5073528;28;20098;-74
2021/11/24 00:08:58;;;;;;;23.98;10.70;;;6.80;99.90;;;;;;5074524;28;20048;-72
2021/11/24 00:11:25;;;;;;;22.80;10.77;;;6.80;99.90;;;;;;5074414;28;20135;-74
2021/11/24 00:13:52;;;;;;;22.05;9.98;;;6.70;99.90;;;;;;5074024;28;20132;-74
2021/11/24 00:16:19;;;;;;;16.80;8.90;;;6.80;99.90;;;;;;5074620;28;20094;-73
2021/11/24 00:18:46;;;;;;;19.70;10.88;;;6.70;99.90;;;;;;5074468;28;20060;-73
2021/11/24 00:21:14;;;;;;;22.50;9.75;;;6.80;99.90;;;;;;5074582;28;20050;-75
2021/11/24 00:23:42;;;;;;;25.67;8.10;;;6.70;99.90;;;;;;5074065;28;20511;-74
2021/11/24 00:26:08;;;;;;;18.13;9.00;;;6.70;99.90;;;;;;5074309;28;20110;-74
2021/11/24 00:28:35;;;;;;;19.70;9.60;;;6.70;99.90;;;;;;5074633;28;20072;-74
2021/11/24 00:31:02;;;;;;;19.98;10.13;;;6.70;99.90;;;;;;5074284;28;20083;-74
2021/11/24 00:33:30;;;;;;;23.50;10.37;;;6.70;99.90;;;;;;5073957;28;20045;-74
2021/11/24 00:35:56;;;;;;;27.33;9.63;;;6.70;99.90;;;;;;5074366;28;20122;-74
2021/11/24 00:38:25;;;;;;;20.98;8.88;;;6.80;99.90;;;;;;5074168;28;20083;-72
2021/11/24 00:40:52;;;;;;;28.60;10.27;;;6.70;99.90;;;;;;5074131;28;20520;-73
2021/11/24 00:43:21;;;;;;;21.10;8.37;;;6.70;99.90;;;;;;5073728;28;20139;-73
2021/11/24 00:45:48;;;;;;;20.93;9.13;;;6.70;99.90;;;;;;5074258;28;20433;-73
2021/11/24 00:48:15;;;;;;;20.27;9.20;;;6.70;99.90;;;;;;5074069;28;20064;-73
2021/11/24 00:50:42;;;;;;;25.73;10.90;;;6.80;99.90;;;;;;5073820;28;20103;-73
2021/11/24 00:53:09;;;;;;;22.77;9.73;;;6.80;99.90;;;;;;5073397;28;20049;-73
2021/11/24 00:55:37;;;;;;;20.97;9.23;;;6.80;99.90;;;;;;5074001;28;20098;-73
2021/11/24 00:58:04;;;;;;;17.55;8.90;;;6.80;99.90;;;;;;5073972;28;20044;-72
2021/11/24 01:00:31;;;;;;;17.90;8.80;;;6.80;99.90;;;;;;5073687;28;20069;-74
2021/11/24 01:02:58;;;;;;;15.63;7.57;;;6.80;99.90;;;;;;5073712;28;20044;-73
2021/11/24 01:05:26;;;;;;;21.40;9.00;;;6.80;99.90;;;;;;5073263;28;20041;-75
2021/11/24 01:07:52;;;;;;;20.67;7.60;;;6.80;99.90;;;;;;5073585;28;20080;-74
2021/11/24 01:10:19;;;;;;;27.30;11.53;;;6.90;99.90;;;;;;5073584;28;20075;-74
2021/11/24 01:12:48;;;;;;;19.40;8.67;;;6.80;99.90;;;;;;5073780;28;20161;-73
2021/11/24 01:15:17;;;;;;;21.60;8.55;;;6.90;99.90;;;;;;5073263;28;20040;-74
2021/11/24 01:17:44;;;;;;;19.00;7.63;;;6.80;99.90;;;;;;5073221;28;20385;-73
2021/11/24 01:20:13;;;;;;;17.47;7.50;;;6.80;99.90;;;;;;5073276;28;20045;-74
2021/11/24 01:22:40;;;;;;;16.10;6.80;;;6.80;99.90;;;;;;5073626;28;20087;-76
2021/11/24 01:25:08;;;;;;;14.50;8.13;;;6.80;99.90;;;;;;5073008;28;20079;-75
2021/11/24 01:27:35;;;;;;;16.52;7.93;;;6.80;99.90;;;;;;5073163;28;20554;-75
2021/11/24 01:30:04;;;;;;;17.65;8.77;;;6.80;99.90;;;;;;5073213;28;20048;-75
2021/11/24 01:32:31;;;;;;;20.63;7.17;;;6.80;99.90;;;;;;5073206;28;20048;-75
2021/11/24 01:34:58;;;;;;;20.83;8.17;;;6.80;99.90;;;;;;5072612;28;20064;-73
2021/11/24 01:37:25;;;;;;;16.40;7.97;;;6.70;99.90;;;;;;5073326;28;20133;-74
2021/11/24 01:39:52;;;;;;;15.57;7.87;;;6.70;99.90;;;;;;5072997;28;20048;-74
2021/11/24 01:42:19;;;;;;;17.40;8.40;;;6.70;99.90;;;;;;5073253;28;20132;-75
2021/11/24 01:44:46;;;;;;;19.07;8.53;;;6.70;99.90;;;;;;5072596;28;20048;-72
2021/11/24 01:47:15;;;;;;;16.43;7.73;;;6.80;99.90;;;;;;5072758;28;20378;-73
2021/11/24 01:49:42;;;;;;;18.65;8.73;;;6.70;99.90;;;;;;5072830;28;20083;-72
2021/11/24 01:52:10;;;;;;;21.08;9.77;;;6.80;99.90;;;;;;5072909;28;20091;-72
2021/11/24 01:54:37;;;;;;;16.77;8.32;;;6.80;99.90;;;;;;5072482;28;20064;-72
2021/11/24 01:57:04;;;;;;;16.95;7.95;;;6.80;99.90;;;;;;5072332;28;20489;-73
2021/11/24 01:59:31;;;;;;;17.63;8.80;;;6.70;99.90;;;;;;5072719;28;20072;-72
2021/11/24 02:01:58;;;;;;;17.10;8.73;;;6.80;99.90;;;;;;5072477;28;20090;-75
2021/11/24 02:04:27;;;;;;;18.63;8.30;;;6.80;99.90;;;;;;5071625;28;20130;-73
2021/11/24 02:06:54;;;;;;;18.40;8.13;;;6.80;99.90;;;;;;5074330;28;20080;-74
2021/11/24 02:09:22;;;;;;;20.07;8.90;;;6.80;99.90;;;;;;5076197;28;20611;-73
2021/11/24 02:11:49;;;;;;;21.33;9.23;;;6.80;99.90;;;;;;5075794;28;20412;-74
2021/11/24 02:14:17;;;;;;;23.03;10.67;;;6.70;99.90;;;;;;5074954;28;20516;-74
2021/11/24 02:16:46;;;;;;;24.43;7.93;;;6.70;99.90;;;;;;5074692;28;20047;-74
2021/11/24 02:19:13;;;;;;;19.35;8.15;;;6.70;99.90;;;;;;5072331;28;20048;-74
2021/11/24 02:21:45;;;;;;;21.10;8.90;;;6.70;99.90;;;;;;5072313;28;20048;-75
2021/11/24 02:24:12;;;;;;;;;;;6.80;99.90;;;;;;5072258;28;20131;-75
2021/11/24 02:26:39;;;;;;;14.85;7.68;;;6.80;99.90;;;;;;5072075;28;19964;-75
2021/11/24 02:29:06;;;;;;;20.87;8.37;;;6.80;99.90;;;;;;5071428;28;20484;-76
2021/11/24 02:31:33;;;;;;;18.93;7.97;;;6.80;99.90;;;;;;5071981;28;20465;-75
2021/11/24 02:34:00;;;;;;;19.25;10.18;;;6.70;99.90;;;;;;5071638;28;20076;-75
2021/11/24 02:36:31;;;;;;;16.63;8.20;;;6.70;99.90;;;;;;5072017;28;20139;-76
2021/11/24 02:39:02;;;;;;;18.95;8.70;;;6.70;99.90;;;;;;5071839;28;20143;-75
2021/11/24 02:41:29;;;;;;;17.08;8.07;;;6.70;99.90;;;;;;5071979;28;20055;-73
2021/11/24 02:43:56;;;;;;;20.67;8.50;;;6.70;99.90;;;;;;5071525;28;20068;-73
2021/11/24 02:46:25;;;;;;;19.03;9.33;;;6.70;99.90;;;;;;5071973;28;20048;-73
2021/11/24 02:48:52;;;;;;;15.98;7.22;;;6.70;99.90;;;;;;5071904;28;20047;-74
2021/11/24 02:51:19;;;;;;;14.57;8.00;;;6.70;99.90;;;;;;5071735;28;20054;-73
2021/11/24 02:53:46;;;;;;;17.70;7.85;;;6.70;99.90;;;;;;5071340;28;20083;-73
2021/11/24 02:56:14;;;;;;;19.23;7.15;;;6.70;99.90;;;;;;5071740;28;20508;-73
2021/11/24 02:58:41;;;;;;;14.10;7.37;;;6.70;99.90;;;;;;5071637;28;20124;-74
2021/11/24 03:01:08;;;;;;;16.07;7.87;;;6.70;99.90;;;;;;5071517;28;20573;-74
2021/11/24 03:03:35;;;;;;;22.37;8.70;;;6.70;99.90;;;;;;5071260;28;20131;-75
2021/11/24 03:06:02;;;;;;;15.83;7.63;;;6.60;99.90;;;;;;5071557;28;20098;-74
2021/11/24 03:08:29;;;;;;;17.97;9.10;;;6.70;99.90;;;;;;5071537;28;20098;-75
2021/11/24 03:10:56;;;;;;;14.88;7.68;;;6.70;99.90;;;;;;5071677;28;20076;-74
2021/11/24 03:13:24;;;;;;;19.33;8.00;;;6.70;99.90;;;;;;5071340;28;20079;-73
2021/11/24 03:15:51;;;;;;;13.73;7.20;;;6.70;99.90;;;;;;5071555;28;20491;-73
2021/11/24 03:18:18;;;;;;;19.27;8.63;;;6.60;99.90;;;;;;5071518;28;20044;-74
2021/11/24 03:20:45;;;;;;;19.17;9.88;;;6.60;99.90;;;;;;5071441;28;20479;-73
2021/11/24 03:23:12;;;;;;;16.73;7.05;;;6.70;99.90;;;;;;5070940;28;20047;-72
2021/11/24 03:25:39;;;;;;;17.83;7.60;;;6.70;99.90;;;;;;5071517;28;20515;-73
2021/11/24 03:28:06;;;;;;;19.80;8.10;;;6.70;99.90;;;;;;5071426;28;20465;-74
2021/11/24 03:30:35;;;;;;;16.40;8.23;;;6.60;99.90;;;;;;5071383;28;20095;-73
2021/11/24 03:33:04;;;;;;;16.53;6.97;;;6.60;99.90;;;;;;5071398;28;20045;-74
2021/11/24 03:35:32;;;;;;;15.10;7.57;;;6.60;99.90;;;;;;5071036;28;20135;-74
2021/11/24 03:37:59;;;;;;;17.20;6.80;;;6.60;99.90;;;;;;5071384;28;20572;-75
2021/11/24 03:40:30;;;;;;;15.73;7.63;;;6.70;99.90;;;;;;5073814;28;20068;-74
2021/11/24 03:42:58;;;;;;;17.85;8.05;;;6.60;99.90;;;;;;5075256;28;20080;-74
2021/11/24 03:45:29;;;;;;;16.30;7.32;;;6.60;99.90;;;;;;5074749;28;20500;-74
2021/11/24 03:47:59;;;;;;;16.52;7.88;;;6.60;99.90;;;;;;5075240;28;20071;-73
2021/11/24 03:50:27;;;;;;;18.63;8.67;;;6.60;99.90;;;;;;5074947;28;20076;-72
2021/11/24 03:52:54;;;;;;;15.27;6.80;;;6.60;99.90;;;;;;5075210;28;20135;-72
2021/11/24 03:55:21;;;;;;;19.97;7.53;;;6.60;99.90;;;;;;5074649;28;20153;-72
2021/11/24 03:57:48;;;;;;;14.82;7.53;;;6.60;99.90;;;;;;5074962;28;20513;-73
2021/11/24 04:00:18;;;;;;;16.77;7.87;;;6.60;99.90;;;;;;5074757;28;20127;-74
2021/11/24 04:02:45;;;;;;;22.90;8.13;;;6.60;99.90;;;;;;5074621;28;20076;-74
2021/11/24 04:05:13;;;;;;;18.45;8.32;;;6.60;99.90;;;;;;5074447;28;20052;-73
2021/11/24 04:07:41;;;;;;;15.73;7.90;;;6.60;99.90;;;;;;5074951;28;20064;-74
2021/11/24 04:10:10;;;;;;;12.83;7.37;;;6.60;99.90;;;;;;5074743;28;20461;-75
2021/11/24 04:12:38;;;;;;;21.98;8.73;;;6.60;99.90;;;;;;5074683;28;20052;-75
2021/11/24 04:15:05;;;;;;;16.00;6.85;;;6.60;99.90;;;;;;5074081;28;20135;-76
2021/11/24 04:17:32;;;;;;;21.23;7.60;;;6.60;99.90;;;;;;5074889;28;20122;-75
2021/11/24 04:19:59;;;;;;;14.03;7.03;;;6.50;99.90;;;;;;5074609;28;20076;-75
2021/11/24 04:22:28;;;;;;;14.70;7.10;;;6.50;99.90;;;;;;5074688;28;20040;-73
2021/11/24 04:24:55;;;;;;;17.33;7.97;;;6.40;99.90;;;;;;5074013;28;20049;-74
2021/11/24 04:27:23;;;;;;;17.83;6.50;;;6.40;99.90;;;;;;5074429;28;20116;-75
2021/11/24 04:29:50;;;;;;;15.95;6.75;;;6.40;99.90;;;;;;5074199;28;20052;-72
2021/11/24 04:32:17;;;;;;;15.60;6.03;;;6.40;99.90;;;;;;5074466;28;20072;-75
2021/11/24 04:34:45;;;;;;;18.40;5.80;;;6.50;99.90;;;;;;5073845;28;20519;-74
2021/11/24 04:37:12;;;;;;;15.60;6.03;;;6.50;99.90;;;;;;5074481;28;20131;-74
2021/11/24 04:39:40;;;;;;;13.60;6.70;;;6.50;99.90;;;;;;5074219;28;20147;-73
2021/11/24 04:42:07;;;;;;;16.10;6.33;;;6.50;99.90;;;;;;5074008;28;20049;-74
2021/11/24 04:44:34;;;;;;;15.23;7.23;;;6.40;99.90;;;;;;5073510;28;20587;-73
2021/11/24 04:47:01;;;;;;;17.17;7.73;;;6.40;99.90;;;;;;5073948;28;20053;-73
2021/11/24 04:49:28;;;;;;;12.97;7.77;;;6.40;99.90;;;;;;5073889;28;20510;-75
2021/11/24 04:51:55;;;;;;;18.87;8.83;;;6.40;99.90;;;;;;5073499;28;20075;-75
2021/11/24 04:54:22;;;;;;;15.67;7.90;;;6.50;99.90;;;;;;5073530;28;20087;-74
2021/11/24 04:56:50;;;;;;;11.87;5.83;;;6.40;99.90;;;;;;5073965;28;20097;-73
2021/11/24 04:59:17;;;;;;;14.37;7.13;;;6.50;99.90;;;;;;5074575;28;20567;-73
2021/11/24 05:01:44;;;;;;;21.27;7.67;;;6.50;99.90;;;;;;5074269;28;20068;-74
2021/11/24 05:04:11;;;;;;;15.43;6.23;;;6.50;99.90;;;;;;5073811;28;20128;-74
2021/11/24 05:06:38;;;;;;;14.67;7.70;;;6.50;99.90;;;;;;5074192;28;20079;-73
2021/11/24 05:09:07;;;;;;;21.87;7.77;;;6.40;99.90;;;;;;5073763;28;20083;-74
2021/11/24 05:11:36;;;;;;;16.30;7.97;;;6.40;99.90;;;;;;5073677;28;20130;-75
2021/11/24 05:14:06;;;;;;;17.30;7.20;;;6.40;99.90;;;;;;5073420;28;20044;-74
2021/11/24 05:16:34;;;;;;;16.23;6.43;;;6.40;99.90;;;;;;5073646;28;20139;-74
2021/11/24 05:19:01;;;;;;;15.40;7.43;;;6.50;99.90;;;;;;5073456;28;20079;-74
2021/11/24 05:21:31;;;;;;;16.90;6.60;;;6.50;99.90;;;;;;5073430;28;20048;-74
2021/11/24 05:23:59;;;;;;;17.73;6.50;;;6.50;99.90;;;;;;5072777;28;20044;-73
2021/11/24 05:26:26;;;;;;;20.40;8.27;;;6.40;99.90;;;;;;5073457;28;20386;-73
2021/11/24 05:28:53;;;;;;;14.47;7.47;;;6.50;99.90;;;;;;5073325;28;20083;-73
2021/11/24 05:31:22;;;;;;;14.70;6.68;;;6.50;99.90;;;;;;5073105;28;20049;-74
2021/11/24 05:33:49;;;;;;;13.50;5.90;;;6.40;99.90;;;;;;5072802;28;20052;-74
2021/11/24 05:36:16;;;;;;;13.88;7.55;;;6.40;99.90;;;;;;5073386;28;20106;-74
2021/11/24 05:38:44;;;;;;;16.48;6.80;;;6.50;99.90;;;;;;5073012;28;20098;-73
2021/11/24 05:41:11;;;;;;;16.90;6.97;;;6.50;99.90;;;;;;5072730;28;20554;-74
2021/11/24 05:43:38;;;;;;;17.63;7.00;;;6.50;99.90;;;;;;5072565;28;20045;-73
2021/11/24 05:46:16;;;;;;;21.27;8.25;;;6.50;99.90;;;;;;5073042;28;20080;-74
2021/11/24 05:48:46;;;;;;;17.50;9.13;;;6.50;99.90;;;;;;5072871;28;20052;-75
2021/11/24 05:51:14;;;;;;;16.23;8.60;;;6.50;99.90;;;;;;5072565;28;20052;-75
2021/11/24 05:53:41;;;;;;;15.03;6.97;;;6.50;99.90;;;;;;5072172;28;20052;-74
2021/11/24 05:56:08;;;;;;;18.10;7.90;;;6.50;99.90;;;;;;5072748;28;20045;-75
2021/11/24 05:58:35;;;;;;;16.60;9.13;;;6.50;99.90;;;;;;5072665;28;20090;-75
2021/11/24 06:01:03;;;;;;;16.73;7.70;;;6.50;99.90;;;;;;5072627;28;20121;-74
2021/11/24 06:03:30;;;;;;;17.55;7.72;;;6.50;99.90;;;;;;5071174;28;20053;-74
2021/11/24 06:05:58;;;;;;;23.73;8.65;;;6.60;99.90;;;;;;5072734;28;20045;-74
2021/11/24 06:08:25;;;;;;;12.77;7.23;;;6.60;99.90;;;;;;5072440;28;20501;-74
2021/11/24 06:10:52;;;;;;;18.83;7.93;;;6.60;99.90;;;;;;5072212;28;20082;-76
2021/11/24 06:13:19;;;;;;;13.47;6.83;;;6.60;99.90;;;;;;5071747;28;20088;-74
2021/11/24 06:15:46;;;;;;;22.57;7.20;;;6.60;99.90;;;;;;5072421;28;20068;-74
2021/11/24 06:18:13;;;;;;;13.63;7.27;;;6.60;99.90;;;;;;5072195;28;20127;-74
2021/11/24 06:20:41;;;;;;;16.07;7.13;;;6.60;99.90;;;;;;5072315;28;20041;-74
2021/11/24 06:23:10;;;;;;;13.53;7.50;;;6.50;99.90;;;;;;5071862;28;20073;-77
2021/11/24 06:25:37;;;;;;;17.13;7.27;;;6.50;99.90;;;;;;5072101;28;20051;-74
2021/11/24 06:28:04;;;;;;;19.27;8.18;;;6.60;99.90;;;;;;5072193;28;20492;-75
2021/11/24 06:30:32;;;;;;;15.10;7.17;;;6.60;99.90;;;;;;5072229;28;20240;-75
2021/11/24 06:32:59;;;;;;;18.00;6.40;;;6.60;99.90;;;;;;5072283;28;20049;-73
2021/11/24 06:35:26;;;;;;;18.23;8.07;;;6.60;99.90;;;;;;5071765;28;20127;-74
2021/11/24 06:37:53;;;;;;;14.43;9.10;;;6.50;99.90;;;;;;5072904;28;20060;-73
2021/11/24 06:40:21;;;;;;;17.80;7.97;;;6.50;99.90;;;;;;5072828;28;20098;-73
2021/11/24 06:42:48;;;;;;;18.90;8.83;;;6.50;99.90;;;;;;5072006;28;20040;-74
2021/11/24 06:45:16;;;;;;;18.33;7.80;;;6.60;99.90;;;;;;5071417;28;20440;-74
2021/11/24 06:47:43;;;;;;;18.47;8.77;;;6.60;99.90;;;;;;5072225;28;20081;-75
2021/11/24 06:50:12;;;;;;;15.73;8.13;;;6.50;99.90;;;;;;5071547;28;20497;-73
2021/11/24 06:52:39;;;;;;;21.23;7.33;;;6.60;99.90;;;;;;5071614;28;20768;-72
2021/11/24 06:55:07;;;;;;;24.48;8.88;;;6.60;99.90;;;;;;5070914;28;20083;-69
2021/11/24 06:57:36;;;;;;;20.47;8.87;;;6.50;99.90;;;;;;5071824;28;20040;-69
2021/11/24 07:00:04;;;;;;;21.30;9.70;;;6.60;99.90;;;;;;5071826;28;20127;-68
2021/11/24 07:02:31;;;;;;;22.77;9.07;;;6.50;99.90;;;;;;5071487;28;20557;-72
2021/11/24 07:04:58;;;;;;;19.40;8.07;;;6.50;99.90;;;;;;5071144;28;20505;-69
2021/11/24 07:07:25;;;;;;;21.63;8.80;;;6.50;99.90;;;;;;5072149;28;20147;-68
2021/11/24 07:09:51;;;;;;;15.80;7.20;;;6.60;99.90;;;;;;5071491;28;20044;-68
2021/11/24 07:12:23;;;;;;;18.03;7.93;;;6.60;99.90;;;;;;5071685;28;20076;-69
2021/11/24 07:14:51;;;;;;;17.65;7.03;;;6.60;99.90;;;;;;5070835;28;20083;-67
2021/11/24 07:17:18;;;;;;;20.00;8.93;;;6.60;99.90;;;;;;5071584;28;20114;-67
2021/11/24 07:19:45;;;;;;;16.43;6.33;;;6.60;99.90;;;;;;5071353;28;20049;-67
2021/11/24 07:22:12;;;;;;;16.07;8.93;;;6.60;99.90;;;;;;5071282;28;20496;-69
2021/11/24 07:24:40;;;;;;;16.47;7.07;;;6.60;99.90;;;;;;5070992;28;20410;-69
2021/11/24 07:27:07;;;;;;;20.77;8.23;;;6.60;99.90;;;;;;5071544;28;20047;-71
2021/11/24 07:29:34;;;;;;;17.63;7.57;;;6.60;99.90;;;;;;5071405;28;20082;-70
2021/11/24 07:32:03;;;;;;;16.38;8.00;;;6.70;99.90;;;;;;5071286;28;20048;-70
2021/11/24 07:34:31;;;;;;;15.43;7.57;;;6.70;99.90;;;;;;5070954;28;20045;-68
2021/11/24 07:36:58;;;;;;;18.80;9.37;;;6.70;99.90;;;;;;5071378;28;20044;-68
2021/11/24 07:39:25;;;;;;;14.73;8.23;;;6.70;99.90;;;;;;5071105;28;20037;-68
2021/11/24 07:41:52;;;;;;;17.33;7.07;;;6.70;99.90;;;;;;5071335;28;20290;-69
2021/11/24 07:44:18;;;;;;;18.23;8.73;;;6.70;99.90;;;;;;5070894;28;20080;-68
2021/11/24 07:46:45;;;;;;;18.38;7.95;;;6.80;99.90;;;;;;5071358;28;20215;-71
2021/11/24 07:49:14;;;;;;;18.07;8.13;;;6.80;99.90;;;;;;5071187;28;20467;-71
2021/11/24 07:51:41;;;;;;;18.38;8.65;;;6.80;99.90;;;;;;5071029;28;20505;-71
2021/11/24 07:54:08;;;;;;;11.80;6.77;;;6.90;99.90;;;;;;5070700;28;20106;-70
2021/11/24 07:56:35;;;;;;;15.53;7.43;;;7.00;99.90;;;;;;5071433;28;20044;-75
2021/11/24 07:59:03;;;;;;;13.40;6.38;;;7.00;99.90;;;;;;5071305;28;20041;-74
2021/11/24 08:01:30;;;;;;;15.30;7.38;;;7.10;99.90;;;;;;5071199;28;20044;-73
2021/11/24 08:03:56;;;;;;;14.48;6.75;;;7.00;99.90;;;;;;5070813;28;20135;-74
2021/11/24 08:06:25;;;;;;;16.60;7.57;;;7.10;99.90;;;;;;5076811;28;20045;-74
2021/11/24 08:08:52;;;;;;;13.82;8.32;;;7.10;99.90;;;;;;5071481;28;20132;-75
2021/11/24 08:11:19;;;;;;;16.07;7.20;;;7.10;99.90;;;;;;5071239;28;20098;-71
2021/11/24 08:13:47;;;;;;;14.50;7.90;;;7.10;99.90;;;;;;5070409;28;20452;-70
2021/11/24 08:16:14;;;;;;;17.17;7.43;;;7.10;99.90;;;;;;5071012;28;20044;-72
2021/11/24 08:18:41;;;;;;;16.30;7.63;;;7.10;99.90;;;;;;5070837;28;20102;-72
2021/11/24 08:21:07;;;;;;;16.53;8.10;;;7.00;99.90;;;;;;5070696;28;20507;-71
2021/11/24 08:23:36;;;;;;;12.13;6.47;;;7.00;99.90;;;;;;5070742;28;20143;-73
2021/11/24 08:26:03;;;;;;;17.20;7.85;;;7.00;99.90;;;;;;5070967;28;20076;-70
2021/11/24 08:28:30;;;;;;;18.98;7.97;;;7.00;99.90;;;;;;5074385;28;20071;-71
2021/11/24 08:30:57;;;;;;;18.77;8.97;;;7.00;99.90;;;;;;5075016;28;20108;-72
2021/11/24 08:33:23;;;;;;;19.35;8.13;;;7.00;99.90;;;;;;5075782;28;20554;-70
2021/11/24 08:35:50;;;;;;;13.13;6.88;;;7.00;99.90;;;;;;5074509;28;20106;-71
2021/11/24 08:38:18;;;;;;;14.60;7.55;;;7.00;99.90;;;;;;5074599;28;20044;-72
2021/11/24 08:40:46;;;;;;;19.13;7.40;;;7.00;99.90;;;;;;5074577;28;20080;-72
2021/11/24 08:43:13;;;;;;;13.90;6.22;;;7.00;99.90;;;;;;5074147;28;20132;-72
2021/11/24 08:45:41;;;;;;;15.00;7.78;;;7.00;99.90;;;;;;5074141;28;20135;-72
2021/11/24 08:48:08;;;;;;;13.93;7.50;;;7.00;99.90;;;;;;5074244;28;20098;-73
2021/11/24 08:50:36;;;;;;;18.70;7.60;;;7.10;99.90;;;;;;5074819;28;20045;-69
2021/11/24 08:53:03;;;;;;;13.75;7.47;;;7.10;99.90;;;;;;5074106;28;20044;-75
2021/11/24 08:55:30;;;;;;;18.77;6.35;;;7.20;99.90;;;;;;5074209;28;20131;-74
2021/11/24 08:57:59;;;;;;;15.68;7.32;;;7.20;99.90;;;;;;5074255;28;20568;-72
2021/11/24 09:00:26;;;;;;;14.70;7.95;;;7.30;99.90;;;;;;5074297;28;20079;-75
2021/11/24 09:02:53;;;;;;;18.73;8.82;;;7.30;99.90;;;;;;5074380;28;20079;-74
2021/11/24 09:05:20;;;;;;;12.20;7.80;;;7.40;99.90;;;;;;5074081;28;20080;-70
2021/11/24 09:07:49;;;;;;;14.73;7.50;;;7.50;99.90;;;;;;5074427;28;20045;-72
2021/11/24 09:10:17;;;;;;;14.35;7.28;;;7.40;99.90;;;;;;5074663;28;20044;-72
2021/11/24 09:12:45;;;;;;;13.55;7.13;;;7.30;99.90;;;;;;5073885;28;20496;-72
2021/11/24 09:15:13;;;;;;;13.18;7.30;;;7.30;99.90;;;;;;5073212;28;20102;-75
2021/11/24 09:17:40;;;;;;;11.97;6.23;;;7.30;99.90;;;;;;5074124;28;20492;-73
2021/11/24 09:20:09;;;;;;;13.27;6.63;;;7.30;99.90;;;;;;5077405;28;20094;-79
2021/11/24 09:22:36;;;;;;;13.43;7.73;;;7.30;99.90;;;;;;5076107;28;20086;-77
2021/11/24 09:25:04;;;;;;;15.90;8.20;;;7.40;99.90;;;;;;5073808;28;20413;-72
2021/11/24 09:27:32;;;;;;;13.68;7.05;;;7.40;99.90;;;;;;5073909;28;20429;-73
2021/11/24 09:30:00;;;;;;;18.35;6.93;;;7.50;99.90;;;;;;5073685;28;20072;-74
2021/11/24 09:32:29;;;;;;;14.05;6.57;;;7.60;99.90;;;;;;5074089;28;20085;-73
2021/11/24 09:34:56;;;;;;;17.13;10.15;;;7.60;99.90;;;;;;5073088;28;20051;-75
2021/11/24 09:37:24;;;;;;;14.27;7.97;;;7.80;99.90;;;;;;5072876;28;20048;-69
2021/11/24 09:39:51;;;;;;;33.05;17.50;;;7.90;99.90;;;;;;5073272;28;20072;-73
2021/11/24 09:42:21;;;;;;;11.48;6.75;;;8.20;99.90;;;;;;5073148;28;20067;-73
2021/11/24 09:44:49;;;;;;;10.63;5.53;;;8.40;99.90;;;;;;5072706;28;20386;-71
2021/11/24 09:47:16;;;;;;;12.30;6.75;;;8.50;99.90;;;;;;5072987;28;20099;-71
2021/11/24 09:49:48;;;;;;;9.45;5.85;;;8.40;99.90;;;;;;5072918;28;20443;-72
2021/11/24 09:52:18;;;;;;;10.57;6.38;;;8.50;99.90;;;;;;5073454;28;20079;-73
2021/11/24 09:54:49;;;;;;;9.48;5.70;;;8.30;99.90;;;;;;5072058;28;20045;-71
2021/11/24 09:57:18;;;;;;;12.23;6.43;;;8.30;99.90;;;;;;5073070;28;20053;-71
2021/11/24 09:59:45;;;;;;;11.95;6.25;;;8.20;99.90;;;;;;5072741;28;20564;-73
2021/11/24 10:02:13;;;;;;;9.35;6.60;;;8.00;99.90;;;;;;5072575;28;20094;-70
2021/11/24 10:04:42;;;;;;;13.93;6.55;;;7.80;99.90;;;;;;5072487;28;20060;-70
2021/11/24 10:07:11;;;;;;;10.80;6.95;;;7.80;99.90;;;;;;5072472;28;20143;-70
2021/11/24 10:09:38;;;;;;;9.82;5.07;;;7.70;99.90;;;;;;5072583;28;20094;-70
2021/11/24 10:12:06;;;;;;;12.88;6.20;;;7.60;99.90;;;;;;5072799;28;20447;-69
2021/11/24 10:14:33;;;;;;;10.10;4.53;;;7.60;99.90;;;;;;5071720;28;20048;-69
2021/11/24 10:17:06;;;;;;;9.98;5.97;;;7.50;99.90;;;;;;5080280;28;20093;-69
2021/11/24 10:19:33;;;;;;;13.68;6.43;;;7.40;99.90;;;;;;5072358;28;20413;-74
2021/11/24 10:22:03;;;;;;;13.45;6.75;;;7.50;99.90;;;;;;5072240;28;20040;-71
2021/11/24 10:24:34;;;;;;;12.82;5.93;;;7.60;99.90;;;;;;5071660;28;20048;-70
2021/11/24 10:27:03;;;;;;;10.95;5.45;;;7.60;99.90;;;;;;5072147;28;20485;-71
2021/11/24 10:29:30;;;;;;;12.68;6.45;;;7.60;99.90;;;;;;5072144;28;20102;-71
2021/11/24 10:31:59;;;;;;;35.25;16.15;;;7.60;99.90;;;;;;5071824;28;20157;-74
2021/11/24 10:34:28;;;;;;;20.23;10.68;;;7.80;99.90;;;;;;5070929;28;20083;-73
2021/11/24 10:37:04;;;;;;;17.77;8.07;;;7.70;99.90;;;;;;5071623;28;20045;-72
2021/11/24 10:39:35;;;;;;;11.13;5.95;;;7.80;99.90;;;;;;5071667;28;20511;-74
2021/11/24 10:42:12;;;;;;;30.90;14.90;;;7.80;99.90;;;;;;5072185;28;20109;-73
2021/11/24 10:44:40;;;;;;;12.80;6.85;;;7.70;99.90;;;;;;5071492;28;20048;-71
2021/11/24 10:47:08;;;;;;;12.02;6.13;;;7.80;99.90;;;;;;5072165;28;20094;-70
2021/11/24 10:49:41;;;;;;;13.13;7.25;;;7.70;99.90;;;;;;5071303;28;20041;-68
2021/11/24 10:52:20;;;;;;;19.33;9.13;;;7.80;99.90;;;;;;5071993;28;20041;-75
2021/11/24 10:55:02;;;;;;;10.60;6.70;;;8.00;99.90;;;;;;5071058;28;20543;-74
2021/11/24 10:57:30;;;;;;;11.48;6.45;;;7.90;99.90;;;;;;5071777;28;20040;-73
2021/11/24 11:00:04;;;;;;;12.20;5.93;;;7.90;99.90;;;;;;5072593;28;20325;-76
2021/11/24 11:02:34;;;;;;;9.60;5.20;;;7.90;99.90;;;;;;5074419;28;20106;-76
2021/11/24 11:05:07;;;;;;;10.48;6.18;;;7.90;99.90;;;;;;5072945;28;20056;-76
2021/11/24 11:07:36;;;;;;;9.93;5.25;;;7.90;99.90;;;;;;5073234;28;20087;-72
2021/11/24 11:10:11;;;;;;;14.40;7.75;;;7.90;99.90;;;;;;5071682;28;20079;-73
2021/11/24 11:12:41;;;;;;;10.88;5.60;;;7.90;99.90;;;;;;5071512;28;20556;-70
2021/11/24 11:15:33;;;;;;;16.40;8.82;;;8.00;99.90;;;;;;5071212;28;20076;-73
2021/11/24 11:18:10;;;;;;;10.68;5.43;;;8.00;99.90;;;;;;5056863;28;20136;-73
2021/11/24 11:20:41;;;;;;;19.35;10.15;;;8.00;99.90;;;;;;5071706;28;20083;-72
2021/11/24 11:23:24;;;;;;;13.33;7.33;;;7.90;99.90;;;;;;5071174;28;20459;-74
2021/11/24 11:25:54;;;;;;;15.88;9.00;;;7.90;99.90;;;;;;5069648;28;20076;-72
2021/11/24 11:28:24;;;;;;;22.67;10.35;;;7.90;99.90;;;;;;5071670;28;20045;-71
2021/11/24 11:30:53;;;;;;;15.10;6.30;;;8.00;99.90;;;;;;5071350;28;20045;-71
2021/11/24 11:33:23;;;;;;;12.15;5.50;;;8.00;99.90;;;;;;5070936;28;20048;-71
2021/11/24 11:35:51;;;;;;;10.63;6.32;;;8.10;99.90;;;;;;5071513;28;20049;-71
2021/11/24 11:38:20;;;;;;;15.75;7.78;;;8.10;99.90;;;;;;5071264;28;20157;-70
2021/11/24 11:40:51;;;;;;;12.48;7.55;;;8.10;99.90;;;;;;5071283;28;20072;-71
2021/11/24 11:43:22;;;;;;;11.00;6.65;;;8.00;99.90;;;;;;5070790;28;20051;-70
2021/11/24 11:45:50;;;;;;;14.82;7.80;;;8.00;99.90;;;;;;5071400;28;20049;-70
2021/11/24 11:48:27;;;;;;;15.57;6.45;;;8.00;99.90;;;;;;5071374;28;20239;-69
2021/11/24 11:50:57;;;;;;;36.05;18.35;;;7.90;99.90;;;;;;5071059;28;20140;-69
2021/11/24 11:53:27;;;;;;;9.85;6.80;;;8.00;99.90;;;;;;5070708;28;20057;-70
2021/11/24 11:56:14;;;;;;;13.70;6.82;;;8.00;99.90;;;;;;5071070;28;20052;-71
2021/11/24 11:58:58;;;;;;;14.73;7.30;;;7.90;99.90;;;;;;5071185;28;20463;-70
2021/11/24 12:01:27;;;;;;;15.73;8.35;;;7.90;99.90;;;;;;5071652;28;20128;-71
2021/11/24 12:04:13;;;;;;;13.48;7.47;;;7.90;99.90;;;;;;5074210;28;20484;-70
2021/11/24 12:06:42;;;;;;;13.05;7.03;;;7.80;99.90;;;;;;5075055;28;20056;-70
2021/11/24 12:09:15;;;;;;;13.68;7.53;;;7.90;99.90;;;;;;5074697;28;20059;-70
2021/11/24 12:12:21;;;;;;;14.30;7.25;;;7.90;99.90;;;;;;5074776;28;20090;-71
2021/11/24 12:15:10;;;;;;;12.27;6.85;;;7.90;99.90;;;;;;5074099;28;20098;-71
2021/11/24 12:17:57;;;;;;;41.10;20.13;;;7.90;99.90;;;;;;5074440;28;20519;-71
2021/11/24 12:20:44;;;;;;;15.80;8.48;;;7.90;99.90;;;;;;5074482;28;20052;-71
2021/11/24 12:23:23;;;;;;;13.38;7.60;;;7.80;99.90;;;;;;5074318;28;20093;-72
2021/11/24 12:25:52;;;;;;;12.05;6.50;;;7.80;99.90;;;;;;5074490;28;20513;-72
2021/11/24 12:28:21;;;;;;;11.32;6.10;;;7.70;99.90;;;;;;5074458;28;20048;-74
2021/11/24 12:31:14;;;;;;;10.45;5.15;;;7.60;99.90;;;;;;5074368;28;20080;-73
2021/11/24 12:33:53;;;;;;;9.52;5.95;;;7.70;99.90;;;;;;5073818;28;20052;-72
2021/11/24 12:36:29;;;;;;;12.45;6.38;;;7.60;99.90;;;;;;5074237;28;20052;-72
2021/11/24 12:39:01;;;;;;;17.45;8.40;;;7.60;99.90;;;;;;5074267;28;20519;-73
2021/11/24 12:41:30;;;;;;;16.20;7.15;;;7.60;99.90;;;;;;5074149;28;20044;-71
2021/11/24 12:44:00;;;;;;;12.30;5.88;;;7.60;99.90;;;;;;5073781;28;20139;-70
2021/11/24 12:46:29;;;;;;;15.82;7.55;;;7.70;99.90;;;;;;5080646;28;20044;-71
2021/11/24 12:48:58;;;;;;;10.65;5.53;;;7.60;99.90;;;;;;5074255;28;20516;-71
2021/11/24 12:51:27;;;;;;;9.00;5.32;;;7.60;99.90;;;;;;5074941;28;20139;-70
2021/11/24 12:54:01;;;;;;;12.38;6.70;;;7.60;99.90;;;;;;5073417;28;20135;-74
2021/11/24 12:56:30;;;;;;;11.45;7.35;;;7.60;99.90;;;;;;5074231;28;20455;-73